Soaring Guidance
Issued by NWS Reno, NV

Home | Current Version | Previous Version | Text Only | Print | Product List | Glossary On
Versions: 1 2 3 4 5 6 7 8
000
UXUS97 KREV 201347
SRGREV

SOARING FORECAST
NATIONAL WEATHER SERVICE - RENO NV
700 AM PDT SUN AUG 20 2017

THIS SOARING FORECAST IS FOR THE EASTERN SIERRA AND WESTERN NEVADA
WITH SPECIFIC INDICES FOR THE GREATER RENO AREA.

THIS FORECAST IS PREPARED DAILY BY 700 AM AND IS NOT UPDATED.

FOR CURRENT FLIGHT CONDITIONS...FORECASTS...AND ADVISORIES...ACCESS
YOUR LOCAL BRIEFING OUTLET OR FLIGHT SERVICE STATION.

*******************************************************************
FORECASTED LOCAL INDICES FOR RENO:        TODAY     YESTERDAY
FORECASTED MAX TEMP AT RENO (DEG F).....     94          96
FORECASTED TRIGGER TEMPERATURE (DEG F)..     80          84
   EXCEEDED YESTERDAY BY 1155 AM PDT
FORECASTED MAXIMUM ALTITUDE (FT MSL)....  16600       18000
FORECASTED SOARING INDEX (FPM)..........   1038        1260
FORECASTED K-INDEX.........VALID 18Z....     20          22
FORECASTED K-INDEX.........VALID 00Z....     24          27
FORECASTED LIFTED INDEX....VALID 18Z....      1           0
FORECASTED LIFTED INDEX....VALID 00Z....     -1          -1

AFTERNOON WINDS ALOFT FORECAST
MSL (FT) WIND/TEMP
9000  0405/+18
10000 9903/+15
12000 9900/+09
14000 9902/+03
16000 9905/-03
18000 1312/-09
24000 1006/-20
30000 0505/-37
34000 9900/-47
39000 9900/-57

SLIDE MOUNTAIN DATA:
     DATE       TIME     TEMP  DEWPT   RH         WIND (MPH)
                        (F)   (F)           | DIR  SPEED GUST
2017-08-20    05:30      54    40     48    | 015   10   17
2017-08-20    05:20      54    41     51    | 008    9   16
2017-08-20    05:00      54    41     51    | 009   10   18
2017-08-20    04:50      54    40     49    | 004    9   15

RENO TAF FORECAST:
KRNO 201120Z 2012/2112 VRB04KT P6SM FEW120 SCT200
     FM202000 05006KT P6SM SCT090 SCT140
     FM210000 33009KT P6SM SCT090 BKN120
     FM210500 VRB03KT P6SM FEW120

CARSON CITY TAF FORECAST:
KCXP 201120Z 2012/2112 VRB03KT P6SM FEW100 SCT200
     FM202000 04007KT P6SM SCT080 SCT140
     FM210100 33006KT P6SM SCT080 BKN120
     FM210500 VRB03KT P6SM FEW120

OUTLOOK FOR THE RENO-CARSON CITY-MINDEN AREA:
.MONDAY...PARTLY CLOUDY. SLIGHT CHANCE OF SHOWERS AND
THUNDERSTORMS IN THE AFTERNOON. HIGHS 90 TO 95. LIGHT WINDS.

SUNRISE AND SUNSET
AUGUST 20 2017........SUNRISE   617 AM PDT   SUNSET   747 PM PDT
AUGUST 21 2017........SUNRISE   618 AM PDT   SUNSET   746 PM PDT



USA.gov is the U.S. government's official web portal to all federal, state and local government web resources and services.